createdAt,value
2022-10-15T00:00:22.490Z,19.67
2022-10-15T00:02:50.446Z,20.03
2022-10-15T00:05:17.892Z,20.13
2022-10-15T00:07:45.224Z,20.10
2022-10-15T00:10:12.699Z,21.67
2022-10-15T00:12:40.659Z,24.27
2022-10-15T00:15:10.166Z,22.83
2022-10-15T00:17:39.677Z,21.57
2022-10-15T00:20:11.011Z,23.80
2022-10-15T00:22:39.170Z,18.00
2022-10-15T00:25:08.437Z,20.40
2022-10-15T00:27:37.366Z,23.30
2022-10-15T00:30:07.063Z,23.67
2022-10-15T00:32:34.479Z,22.10
2022-10-15T00:35:03.360Z,23.53
2022-10-15T00:37:30.648Z,22.13
2022-10-15T00:39:57.975Z,23.17
2022-10-15T00:42:25.494Z,23.57
2022-10-15T00:44:56.730Z,24.37
2022-10-15T00:47:30.506Z,22.83
2022-10-15T00:50:08.662Z,26.20
2022-10-15T00:52:43.982Z,23.00
2022-10-15T00:55:16.978Z,26.53
2022-10-15T00:57:47.961Z,23.23
2022-10-15T01:00:17.417Z,25.53
2022-10-15T01:02:46.578Z,25.83
2022-10-15T01:05:18.244Z,24.63
2022-10-15T01:07:45.547Z,24.13
2022-10-15T01:10:13.810Z,24.77
2022-10-15T01:12:57.262Z,27.43
2022-10-15T01:15:33.659Z,27.13
2022-10-15T01:18:10.789Z,26.77
2022-10-15T01:20:52.953Z,30.27
2022-10-15T01:24:37.529Z,30.13
2022-10-15T01:27:26.438Z,31.90
2022-10-15T01:30:21.980Z,29.30
2022-10-15T01:33:35.046Z,33.27
2022-10-15T01:36:17.663Z,25.07
2022-10-15T01:38:55.807Z,33.87
2022-10-15T01:41:37.614Z,32.83
2022-10-15T01:44:11.915Z,33.37
2022-10-15T01:46:47.722Z,28.03
2022-10-15T01:49:26.137Z,35.40
2022-10-15T01:51:55.806Z,35.27
2022-10-15T01:54:27.834Z,34.47
2022-10-15T01:56:58.201Z,36.13
2022-10-15T01:59:31.225Z,39.17
2022-10-15T02:01:59.964Z,34.47
2022-10-15T02:04:30.002Z,33.77
2022-10-15T02:07:04.420Z,39.17
2022-10-15T02:09:44.226Z,38.57
2022-10-15T02:12:30.768Z,36.10
2022-10-15T02:15:06.503Z,32.63
2022-10-15T02:17:45.335Z,38.27
2022-10-15T02:20:19.943Z,38.97
2022-10-15T02:22:55.639Z,36.27
2022-10-15T02:25:25.875Z,37.73
2022-10-15T02:27:57.134Z,39.83
2022-10-15T02:30:26.737Z,37.83
2022-10-15T02:32:59.458Z,33.83
2022-10-15T02:35:28.232Z,41.97
2022-10-15T02:38:03.070Z,39.90
2022-10-15T02:40:35.889Z,37.03
2022-10-15T02:43:08.898Z,37.60
2022-10-15T02:45:36.850Z,38.07
2022-10-15T02:48:07.481Z,45.40
2022-10-15T02:50:34.821Z,40.03
2022-10-15T02:53:02.387Z,43.53
2022-10-15T02:55:29.807Z,36.40
2022-10-15T02:57:57.177Z,43.93
2022-10-15T03:00:24.934Z,40.03
2022-10-15T03:02:52.190Z,43.40
2022-10-15T03:05:20.945Z,45.10
2022-10-15T03:07:48.196Z,44.00
2022-10-15T03:10:15.621Z,37.97
2022-10-15T03:12:42.840Z,36.20
2022-10-15T03:15:10.685Z,38.50
2022-10-15T03:17:38.057Z,37.03
2022-10-15T03:20:06.410Z,32.53
2022-10-15T03:22:35.022Z,39.23
2022-10-15T03:25:02.471Z,40.77
2022-10-15T03:27:29.729Z,32.17
2022-10-15T03:29:57.108Z,36.10
2022-10-15T03:32:24.432Z,36.13
2022-10-15T03:34:51.727Z,35.40
2022-10-15T03:37:18.990Z,38.43
2022-10-15T03:39:48.083Z,34.43
2022-10-15T03:42:15.422Z,35.73
2022-10-15T03:44:42.696Z,29.97
2022-10-15T03:47:10.031Z,34.97
2022-10-15T03:49:37.304Z,31.17
2022-10-15T03:52:04.922Z,29.97
2022-10-15T03:54:32.160Z,34.63
2022-10-15T03:57:01.441Z,35.50
2022-10-15T03:59:29.084Z,34.23
2022-10-15T04:01:56.300Z,35.17
2022-10-15T04:04:23.582Z,30.33
2022-10-15T04:06:50.862Z,36.00
2022-10-15T04:09:18.158Z,34.23
2022-10-15T04:11:45.777Z,36.10
2022-10-15T04:14:14.403Z,37.33
2022-10-15T04:16:44.151Z,32.03
2022-10-15T04:19:11.521Z,32.97
2022-10-15T04:21:38.807Z,39.87
2022-10-15T04:24:06.405Z,34.83
2022-10-15T04:26:36.545Z,35.47
2022-10-15T04:29:03.973Z,34.73
2022-10-15T04:31:33.424Z,36.33
2022-10-15T04:34:00.767Z,34.40
2022-10-15T04:36:28.067Z,33.53
2022-10-15T04:38:55.493Z,37.30
2022-10-15T04:41:22.911Z,36.37
2022-10-15T04:43:50.120Z,40.93
2022-10-15T04:46:17.476Z,43.67
2022-10-15T04:48:46.055Z,39.07
2022-10-15T04:51:16.383Z,38.90
2022-10-15T04:53:44.397Z,41.87
2022-10-15T04:56:15.621Z,38.33
2022-10-15T04:58:45.052Z,35.67
2022-10-15T05:01:14.570Z,35.07
2022-10-15T05:03:45.266Z,31.07
2022-10-15T05:06:17.067Z,32.67
2022-10-15T05:08:45.155Z,32.17
2022-10-15T05:11:16.215Z,36.23
2022-10-15T05:13:43.731Z,30.47
2022-10-15T05:16:16.379Z,36.10
2022-10-15T05:18:47.650Z,41.33
2022-10-15T05:21:18.303Z,42.23
2022-10-15T05:23:47.161Z,40.30
2022-10-15T05:26:20.271Z,37.13
2022-10-15T05:28:48.093Z,39.77
2022-10-15T05:31:19.254Z,43.23
2022-10-15T05:33:47.032Z,39.77
2022-10-15T05:36:19.365Z,44.00
2022-10-15T05:38:48.774Z,44.37
2022-10-15T05:41:16.482Z,39.53
2022-10-15T05:43:46.438Z,46.43
2022-10-15T05:46:13.823Z,39.43
2022-10-15T05:48:41.112Z,45.83
2022-10-15T05:51:12.887Z,46.83
2022-10-15T05:53:43.228Z,41.43
2022-10-15T05:56:10.574Z,43.40
2022-10-15T05:58:37.992Z,48.10
2022-10-15T06:01:08.134Z,45.67
2022-10-15T06:03:36.189Z,42.33
2022-10-15T06:06:04.389Z,44.33
2022-10-15T06:08:32.287Z,44.33
2022-10-15T06:11:08.383Z,43.73
2022-10-15T06:13:39.380Z,52.67
2022-10-15T06:16:07.859Z,50.33
2022-10-15T06:18:35.920Z,46.03
2022-10-15T06:21:03.229Z,44.13
2022-10-15T06:23:30.726Z,48.20
2022-10-15T06:26:04.027Z,45.77
2022-10-15T06:28:31.877Z,45.60
2022-10-15T06:31:00.364Z,45.87
2022-10-15T06:33:28.751Z,46.37
2022-10-15T06:36:00.158Z,47.80
2022-10-15T06:38:27.427Z,46.37
2022-10-15T06:40:54.682Z,45.33
2022-10-15T06:43:23.780Z,48.10
2022-10-15T06:45:51.079Z,47.37
2022-10-15T06:48:18.557Z,50.43
2022-10-15T06:50:45.956Z,47.33
2022-10-15T06:53:13.269Z,42.83
2022-10-15T06:55:40.562Z,50.37
2022-10-15T06:58:07.865Z,46.67
2022-10-15T07:00:36.550Z,47.13
2022-10-15T07:03:05.114Z,41.57
2022-10-15T07:05:33.022Z,45.83
2022-10-15T07:08:00.997Z,47.73
2022-10-15T07:10:29.063Z,45.53
2022-10-15T07:12:56.495Z,45.93
2022-10-15T07:15:23.847Z,47.00
2022-10-15T07:18:01.378Z,48.83
2022-10-15T07:20:30.957Z,45.30
2022-10-15T07:22:59.204Z,46.90
2022-10-15T07:25:28.097Z,45.90
2022-10-15T07:27:56.251Z,42.80
2022-10-15T07:30:27.420Z,43.13
2022-10-15T07:32:57.934Z,43.67
2022-10-15T07:35:26.069Z,45.03
2022-10-15T07:37:53.579Z,47.27
2022-10-15T07:40:21.229Z,41.27
2022-10-15T07:42:54.227Z,44.03
2022-10-15T07:45:21.479Z,45.57
2022-10-15T07:47:48.763Z,43.43
2022-10-15T07:50:17.863Z,46.30
2022-10-15T07:52:45.521Z,45.70
2022-10-15T07:55:13.220Z,43.73
2022-10-15T07:57:40.773Z,41.30
2022-10-15T08:00:10.077Z,43.63
2022-10-15T08:02:37.378Z,43.13
2022-10-15T08:05:05.463Z,42.23
2022-10-15T08:07:34.071Z,42.53
2022-10-15T08:10:01.458Z,42.37
2022-10-15T08:12:28.730Z,41.90
2022-10-15T08:14:56.017Z,39.43
2022-10-15T08:17:23.303Z,41.43
2022-10-15T08:19:50.609Z,39.87
2022-10-15T08:22:17.931Z,39.60
2022-10-15T08:24:46.661Z,39.33
2022-10-15T08:27:14.238Z,39.23
2022-10-15T08:29:41.456Z,37.03
2022-10-15T08:32:08.675Z,39.33
2022-10-15T08:34:35.953Z,39.83
2022-10-15T08:37:03.633Z,35.17
2022-10-15T08:39:31.230Z,28.47
2022-10-15T08:42:05.861Z,31.27
2022-10-15T08:44:43.557Z,26.87
2022-10-15T08:47:27.066Z,30.23
2022-10-15T08:49:58.425Z,28.63
2022-10-15T08:52:39.286Z,28.50
2022-10-15T08:55:10.056Z,27.10
2022-10-15T08:57:46.576Z,25.80
2022-10-15T09:00:19.929Z,26.70
2022-10-15T09:02:58.209Z,27.57
2022-10-15T09:05:38.081Z,26.97
2022-10-15T09:08:27.637Z,27.47
2022-10-15T09:11:02.582Z,23.53
2022-10-15T09:13:40.273Z,22.43
2022-10-15T09:16:16.608Z,24.53
2022-10-15T09:18:49.915Z,24.03
2022-10-15T09:21:17.516Z,22.57
2022-10-15T09:23:45.335Z,21.50
2022-10-15T09:26:27.068Z,22.13
2022-10-15T09:29:06.731Z,22.60
2022-10-15T09:31:46.639Z,23.83
2022-10-15T09:34:27.552Z,23.57
2022-10-15T09:37:02.246Z,21.03
2022-10-15T09:39:48.016Z,21.27
2022-10-15T09:42:30.671Z,24.50
2022-10-15T09:45:04.408Z,22.07
2022-10-15T09:47:34.620Z,19.33
2022-10-15T09:50:04.973Z,24.00
2022-10-15T09:53:00.499Z,22.00
2022-10-15T09:55:41.131Z,26.50
2022-10-15T09:58:18.141Z,22.83
2022-10-15T10:01:00.995Z,23.17
2022-10-15T10:03:31.156Z,20.37
2022-10-15T10:06:06.329Z,22.87
2022-10-15T10:08:39.246Z,21.67
2022-10-15T10:11:11.080Z,18.10
2022-10-15T10:13:44.975Z,19.10
2022-10-15T10:16:17.741Z,19.63
2022-10-15T10:19:03.107Z,19.10
2022-10-15T10:21:33.968Z,22.43
2022-10-15T10:24:21.710Z,19.80
2022-10-15T10:26:49.236Z,18.40
2022-10-15T10:29:33.547Z,21.30
2022-10-15T10:32:18.224Z,20.83
2022-10-15T10:34:50.174Z,20.30
2022-10-15T10:37:20.529Z,21.70
2022-10-15T10:39:53.945Z,22.27
2022-10-15T10:42:35.354Z,26.87
2022-10-15T10:45:23.117Z,23.47
2022-10-15T10:47:51.866Z,23.47
2022-10-15T10:50:35.351Z,23.63
2022-10-15T10:53:22.059Z,21.90
2022-10-15T10:55:51.924Z,23.73
2022-10-15T10:58:26.277Z,21.77
2022-10-15T11:00:58.166Z,25.37
2022-10-15T11:03:37.341Z,22.67
2022-10-15T11:06:24.448Z,22.70
2022-10-15T11:09:08.438Z,25.50
2022-10-15T11:12:00.872Z,27.70
2022-10-15T11:14:45.121Z,27.03
2022-10-15T11:17:27.742Z,27.53
2022-10-15T11:23:15.623Z,32.37
2022-10-15T11:25:57.754Z,32.50
2022-10-15T11:28:48.755Z,34.13
2022-10-15T11:31:29.583Z,30.37
2022-10-15T11:34:21.684Z,32.00
2022-10-15T11:37:25.195Z,34.10
2022-10-15T11:40:13.864Z,32.13
2022-10-15T11:42:55.836Z,33.97
2022-10-15T11:46:00.147Z,31.60
2022-10-15T11:48:46.247Z,29.67
2022-10-15T11:51:29.027Z,28.53
2022-10-15T11:54:23.214Z,28.23
2022-10-15T11:56:54.178Z,23.97
2022-10-15T11:59:35.840Z,24.53
2022-10-15T12:02:11.818Z,22.30
2022-10-15T12:04:44.164Z,18.57
2022-10-15T12:07:18.499Z,15.37
2022-10-15T12:09:52.352Z,13.53
2022-10-15T12:12:35.905Z,15.03
2022-10-15T12:15:24.246Z,12.13
2022-10-15T12:18:01.123Z,13.03
2022-10-15T12:20:29.028Z,12.17
2022-10-15T12:23:00.423Z,13.80
2022-10-15T12:25:45.252Z,13.63
2022-10-15T12:28:23.235Z,14.20
2022-10-15T12:31:00.363Z,14.93
2022-10-15T12:33:39.252Z,13.73
2022-10-15T12:36:25.056Z,14.80
2022-10-15T12:38:59.083Z,18.17
2022-10-15T12:41:40.413Z,16.53
2022-10-15T12:44:20.338Z,15.57
2022-10-15T12:46:48.331Z,13.93
2022-10-15T12:49:56.687Z,15.77
2022-10-15T12:53:01.246Z,16.23
2022-10-15T12:55:33.932Z,15.60
2022-10-15T12:58:26.543Z,15.67
2022-10-15T13:00:53.910Z,16.47
2022-10-15T13:03:41.687Z,17.47
2022-10-15T13:06:26.965Z,15.50
2022-10-15T13:09:02.852Z,18.13
2022-10-15T13:11:35.497Z,17.03
2022-10-15T13:14:26.861Z,15.20
2022-10-15T13:16:56.015Z,16.97
2022-10-15T13:19:28.077Z,16.77
2022-10-15T13:21:58.975Z,16.27
2022-10-15T13:24:29.919Z,16.27
2022-10-15T13:27:00.610Z,16.33
2022-10-15T13:29:29.530Z,15.80
2022-10-15T13:31:57.976Z,16.00
2022-10-15T13:34:30.193Z,16.63
2022-10-15T13:37:01.714Z,15.53
2022-10-15T13:39:35.481Z,16.43
2022-10-15T13:42:10.145Z,18.13
2022-10-15T13:44:39.182Z,16.27
2022-10-15T13:47:27.044Z,16.83
2022-10-15T13:50:22.975Z,16.13
2022-10-15T13:52:56.958Z,18.63
2022-10-15T13:55:28.481Z,18.67
2022-10-15T13:58:02.052Z,18.23
2022-10-15T14:00:36.401Z,20.30
2022-10-15T14:03:23.965Z,19.23
2022-10-15T14:05:55.037Z,20.50
2022-10-15T14:08:28.696Z,20.13
2022-10-15T14:10:59.737Z,21.77
2022-10-15T14:13:28.334Z,24.80
2022-10-15T14:16:14.333Z,21.50
2022-10-15T14:18:49.006Z,21.53
2022-10-15T14:21:20.431Z,21.03
2022-10-15T14:23:49.899Z,21.83
2022-10-15T14:26:24.731Z,21.33
2022-10-15T14:28:52.796Z,23.20
2022-10-15T14:31:37.204Z,23.10
2022-10-15T14:34:05.261Z,19.53
2022-10-15T14:36:42.034Z,19.47
2022-10-15T14:39:29.391Z,18.80
2022-10-15T14:42:02.354Z,18.33
2022-10-15T14:44:44.868Z,18.47
2022-10-15T14:47:22.883Z,17.77
2022-10-15T14:49:55.135Z,19.70
2022-10-15T14:52:23.106Z,19.10
2022-10-15T14:55:07.205Z,18.07
2022-10-15T14:57:40.161Z,19.33
2022-10-15T15:03:17.441Z,19.43
2022-10-15T15:05:47.993Z,18.00
2022-10-15T15:08:15.592Z,17.27
2022-10-15T15:10:44.640Z,17.53
2022-10-15T15:13:16.799Z,17.53
2022-10-15T15:15:44.104Z,17.20
2022-10-15T15:18:13.656Z,15.77
2022-10-15T15:20:43.774Z,18.23
2022-10-15T15:23:17.866Z,18.30
2022-10-15T15:25:46.347Z,15.93
2022-10-15T15:28:15.736Z,15.87
2022-10-15T15:30:45.157Z,16.60
2022-10-15T15:33:16.101Z,15.77
2022-10-15T15:35:51.933Z,12.90
2022-10-15T15:38:20.865Z,12.63
2022-10-15T15:40:49.275Z,11.93
2022-10-15T15:43:19.143Z,12.07
2022-10-15T15:45:47.621Z,11.07
2022-10-15T15:48:17.087Z,9.17
2022-10-15T15:50:44.502Z,9.83
2022-10-15T15:53:13.008Z,9.00
2022-10-15T15:55:40.404Z,9.70
2022-10-15T15:58:07.800Z,8.50
2022-10-15T16:00:35.096Z,7.90
2022-10-15T16:03:02.434Z,7.33
2022-10-15T16:05:31.087Z,6.97
2022-10-15T16:07:58.362Z,7.50
2022-10-15T16:10:25.890Z,6.00
2022-10-15T16:12:53.244Z,6.30
2022-10-15T16:15:21.082Z,5.83
2022-10-15T16:17:48.437Z,5.00
2022-10-15T16:20:16.059Z,6.03
2022-10-15T16:22:44.734Z,5.33
2022-10-15T16:25:12.098Z,5.57
2022-10-15T16:27:39.420Z,6.63
2022-10-15T16:30:08.274Z,5.13
2022-10-15T16:32:35.531Z,5.30
2022-10-15T16:35:02.816Z,4.20
2022-10-15T16:37:30.071Z,3.63
2022-10-15T16:39:58.704Z,4.03
2022-10-15T16:42:26.058Z,3.63
2022-10-15T16:44:53.344Z,3.43
2022-10-15T16:47:23.838Z,4.57
2022-10-15T16:49:51.357Z,4.40
2022-10-15T16:52:18.658Z,4.67
2022-10-15T16:54:45.992Z,4.13
2022-10-15T16:57:14.790Z,5.00
2022-10-15T16:59:42.126Z,5.90
2022-10-15T17:02:10.029Z,3.63
2022-10-15T17:04:37.516Z,3.00
2022-10-15T17:07:04.901Z,4.20
2022-10-15T17:09:32.369Z,3.50
2022-10-15T17:11:59.630Z,2.90
2022-10-15T17:14:28.401Z,3.97
2022-10-15T17:16:56.087Z,3.87
2022-10-15T17:19:28.959Z,4.03
2022-10-15T17:21:59.249Z,3.13
2022-10-15T17:24:26.525Z,4.33
2022-10-15T17:26:54.748Z,3.43
2022-10-15T17:29:25.416Z,3.97
2022-10-15T17:31:55.214Z,3.13
2022-10-15T17:34:22.529Z,3.40
2022-10-15T17:36:49.889Z,3.40
2022-10-15T17:39:20.447Z,3.70
2022-10-15T17:41:49.640Z,3.47
2022-10-15T17:44:16.958Z,3.50
2022-10-15T17:46:44.320Z,4.07
2022-10-15T17:49:18.135Z,3.80
2022-10-15T17:51:46.407Z,4.00
2022-10-15T17:54:13.934Z,3.97
2022-10-15T17:56:41.243Z,4.20
2022-10-15T17:59:11.488Z,3.67
2022-10-15T18:01:58.817Z,3.87
2022-10-15T18:04:29.877Z,4.37
2022-10-15T18:06:57.324Z,4.00
2022-10-15T18:09:25.346Z,3.93
2022-10-15T18:11:52.650Z,4.70
2022-10-15T18:16:48.309Z,4.07
2022-10-15T18:19:15.573Z,4.60
2022-10-15T18:21:48.550Z,4.27
2022-10-15T18:24:21.376Z,4.13
2022-10-15T18:26:49.869Z,4.37
2022-10-15T18:29:17.203Z,4.63
2022-10-15T18:31:44.502Z,5.03
2022-10-15T18:34:11.754Z,4.87
2022-10-15T18:36:41.574Z,4.63
2022-10-15T18:39:11.235Z,5.40
2022-10-15T18:41:40.185Z,6.20
2022-10-15T18:44:15.823Z,4.50
2022-10-15T18:46:45.024Z,5.03
2022-10-15T18:49:15.346Z,4.80
2022-10-15T18:51:45.799Z,6.13
2022-10-15T18:54:15.363Z,4.67
2022-10-15T18:56:42.802Z,5.10
2022-10-15T18:59:10.089Z,5.93
2022-10-15T19:01:44.348Z,6.10
2022-10-15T19:04:14.990Z,5.93
2022-10-15T19:06:45.383Z,5.80
2022-10-15T19:09:17.598Z,5.40
2022-10-15T19:11:48.991Z,6.73
2022-10-15T19:14:16.836Z,6.50
2022-10-15T19:16:44.846Z,6.67
2022-10-15T19:19:16.091Z,5.93
2022-10-15T19:21:43.867Z,6.97
2022-10-15T19:24:11.421Z,6.97
2022-10-15T19:26:40.680Z,7.03
2022-10-15T19:29:07.991Z,6.53
2022-10-15T19:31:39.844Z,6.40
2022-10-15T19:34:07.802Z,6.03
2022-10-15T19:36:38.446Z,6.90
2022-10-15T19:39:08.426Z,7.30
2022-10-15T19:41:38.062Z,7.40
2022-10-15T19:44:08.239Z,8.10
2022-10-15T19:46:36.189Z,6.07
2022-10-15T19:49:05.035Z,7.30
2022-10-15T19:51:32.488Z,8.37
2022-10-15T19:54:00.209Z,6.63
2022-10-15T19:56:28.639Z,7.13
2022-10-15T19:58:57.853Z,7.23
2022-10-15T20:01:28.334Z,8.03
2022-10-15T20:04:01.657Z,10.40
2022-10-15T20:06:32.795Z,7.80
2022-10-15T20:09:00.470Z,7.47
2022-10-15T20:11:27.996Z,6.50
2022-10-15T20:13:55.356Z,6.93
2022-10-15T20:16:23.686Z,6.77
2022-10-15T20:18:52.959Z,9.87
2022-10-15T20:21:20.303Z,6.60
2022-10-15T20:23:47.965Z,6.30
2022-10-15T20:26:16.518Z,6.97
2022-10-15T20:28:46.701Z,6.70
2022-10-15T20:31:17.082Z,7.37
2022-10-15T20:33:45.015Z,6.13
2022-10-15T20:36:22.644Z,6.67
2022-10-15T20:38:51.567Z,7.20
2022-10-15T20:41:19.954Z,8.40
2022-10-15T20:43:53.809Z,8.70
2022-10-15T20:46:27.975Z,5.70
2022-10-15T20:48:58.513Z,6.90
2022-10-15T20:51:28.625Z,7.13
2022-10-15T20:53:59.040Z,7.63
2022-10-15T20:56:26.370Z,7.20
2022-10-15T20:58:53.915Z,5.97
2022-10-15T21:01:21.383Z,6.70
2022-10-15T21:03:48.642Z,8.20
2022-10-15T21:06:16.124Z,7.97
2022-10-15T21:08:44.949Z,7.60
2022-10-15T21:11:12.303Z,8.90
2022-10-15T21:13:39.654Z,8.97
2022-10-15T21:16:08.909Z,9.70
2022-10-15T21:18:37.391Z,8.87
2022-10-15T21:21:07.289Z,8.63
2022-10-15T21:23:35.466Z,9.80
2022-10-15T21:26:08.989Z,8.33
2022-10-15T21:28:37.243Z,8.40
2022-10-15T21:31:07.076Z,8.70
2022-10-15T21:33:36.091Z,9.37
2022-10-15T21:36:14.418Z,8.70
2022-10-15T21:38:42.610Z,8.97
2022-10-15T21:41:11.245Z,8.60
2022-10-15T21:43:38.696Z,8.53
2022-10-15T21:46:08.469Z,9.67
2022-10-15T21:48:36.726Z,11.53
2022-10-15T21:51:05.295Z,9.30
2022-10-15T21:53:33.657Z,8.90
2022-10-15T21:56:02.148Z,9.20
2022-10-15T21:58:30.912Z,9.23
2022-10-15T22:01:06.614Z,8.80
2022-10-15T22:03:33.898Z,8.83
2022-10-15T22:06:01.296Z,7.70
2022-10-15T22:08:29.102Z,8.47
2022-10-15T22:11:07.437Z,7.87
2022-10-15T22:13:36.305Z,8.73
2022-10-15T22:16:04.774Z,7.07
2022-10-15T22:18:32.074Z,8.77
2022-10-15T22:21:10.320Z,7.30
2022-10-15T22:23:37.659Z,6.73
2022-10-15T22:26:05.207Z,9.27
2022-10-15T22:28:32.534Z,8.10
2022-10-15T22:31:05.227Z,7.10
2022-10-15T22:33:33.801Z,7.73
2022-10-15T22:36:02.127Z,5.93
2022-10-15T22:38:29.522Z,5.20
2022-10-15T22:40:57.255Z,8.43
2022-10-15T22:43:25.206Z,5.50
2022-10-15T22:45:52.594Z,6.80
2022-10-15T22:48:21.345Z,5.00
2022-10-15T22:50:56.194Z,5.83
2022-10-15T22:53:24.055Z,3.60
2022-10-15T22:55:56.588Z,3.57
2022-10-15T22:58:24.430Z,7.23
2022-10-15T23:00:52.712Z,3.53
2022-10-15T23:03:22.356Z,4.17
2022-10-15T23:05:56.209Z,3.27
2022-10-15T23:08:23.832Z,5.33
2022-10-15T23:10:51.173Z,3.77
2022-10-15T23:13:18.485Z,3.60
2022-10-15T23:15:45.807Z,3.67
2022-10-15T23:18:13.180Z,3.33
2022-10-15T23:20:41.901Z,3.60
2022-10-15T23:23:09.149Z,4.07
2022-10-15T23:25:39.613Z,4.37
2022-10-15T23:28:06.954Z,4.97
2022-10-15T23:30:34.303Z,4.37
2022-10-15T23:33:02.866Z,3.47
2022-10-15T23:35:30.249Z,4.10
2022-10-15T23:37:58.889Z,5.07
2022-10-15T23:40:26.170Z,5.00
2022-10-15T23:42:54.564Z,2.77
2022-10-15T23:45:21.972Z,3.63
2022-10-15T23:47:49.327Z,4.73
2022-10-15T23:50:17.544Z,3.57
2022-10-15T23:52:44.842Z,2.67
2022-10-15T23:55:13.815Z,5.00
2022-10-15T23:57:41.028Z,3.80
